Time;durP1;ratioP1;P1;durP2;ratioP2;P2;SDS_P1;SDS_P2;PMS_P1;PMS_P2;Temp;Humidity;BMP_temperature;BMP_pressure;BME280_temperature;BME280_humidity;BME280_pressure;Samples;Min_cycle;Max_cycle;Signal;HPM_P1;HPM_P2
2022/04/07 00:00:07;;;;;;;8.00;5.83;;;10.00;99.90;;;;;;4982192;28;20207;-48
2022/04/07 00:02:34;;;;;;;6.30;5.53;;;10.00;99.90;;;;;;4994165;28;20285;-53
2022/04/07 00:05:01;;;;;;;6.33;5.47;;;10.00;99.90;;;;;;4985476;28;20255;-47
2022/04/07 00:07:28;;;;;;;7.37;5.17;;;10.00;99.90;;;;;;4992872;28;20322;-46
2022/04/07 00:09:55;;;;;;;6.50;4.77;;;10.00;99.90;;;;;;4961166;28;20554;-47
2022/04/07 00:12:23;;;;;;;4.73;4.23;;;9.90;99.90;;;;;;4988539;28;20302;-48
2022/04/07 00:14:50;;;;;;;6.67;5.60;;;9.90;99.90;;;;;;4995723;28;20901;-46
2022/04/07 00:17:17;;;;;;;6.03;5.43;;;10.00;99.90;;;;;;4969439;28;20240;-48
2022/04/07 00:19:43;;;;;;;7.03;5.53;;;10.00;99.90;;;;;;4985794;28;20227;-46
2022/04/07 00:22:10;;;;;;;5.10;4.60;;;10.00;99.90;;;;;;4995812;28;20362;-46
2022/04/07 00:24:37;;;;;;;7.20;4.70;;;9.90;99.90;;;;;;4970896;28;20225;-46
2022/04/07 00:27:04;;;;;;;5.80;5.20;;;10.00;99.90;;;;;;5006823;28;20203;-50
2022/04/07 00:29:33;;;;;;;6.33;5.30;;;10.00;99.90;;;;;;4991738;28;20548;-48
2022/04/07 00:32:03;;;;;;;6.07;4.17;;;10.00;99.90;;;;;;4981792;28;20246;-46
2022/04/07 00:34:31;;;;;;;4.67;4.13;;;10.00;99.90;;;;;;4991885;28;20254;-47
2022/04/07 00:36:57;;;;;;;6.40;4.03;;;10.00;99.90;;;;;;4980480;28;20375;-47
2022/04/07 00:39:24;;;;;;;5.23;4.10;;;10.00;99.90;;;;;;4980910;28;20207;-46
2022/04/07 00:41:51;;;;;;;4.27;3.87;;;10.00;99.90;;;;;;4992147;28;20800;-50
2022/04/07 00:44:21;;;;;;;8.47;4.23;;;10.00;99.90;;;;;;4984471;28;20232;-45
2022/04/07 00:46:50;;;;;;;5.77;3.87;;;10.00;99.90;;;;;;4975586;28;20207;-47
2022/04/07 00:49:17;;;;;;;7.37;4.20;;;10.00;99.90;;;;;;4991581;28;20589;-46
2022/04/07 00:51:45;;;;;;;5.73;3.60;;;10.00;99.90;;;;;;4985302;28;20278;-47
2022/04/07 00:54:13;;;;;;;7.33;4.30;;;10.00;99.90;;;;;;4996515;28;20225;-46
2022/04/07 00:56:42;;;;;;;4.60;4.20;;;10.00;99.90;;;;;;4976675;28;20223;-46
2022/04/07 00:59:09;;;;;;;4.43;4.03;;;10.00;99.90;;;;;;4990337;28;20201;-46
2022/04/07 01:01:36;;;;;;;7.53;4.83;;;10.00;99.90;;;;;;4988771;28;20222;-46
2022/04/07 01:04:04;;;;;;;4.80;4.00;;;10.00;99.90;;;;;;4975395;28;20237;-47
2022/04/07 01:06:31;;;;;;;8.67;3.70;;;10.00;99.90;;;;;;4989356;28;20469;-46
2022/04/07 01:08:58;;;;;;;7.27;4.87;;;10.00;99.90;;;;;;4992160;28;20305;-47
2022/04/07 01:11:26;;;;;;;5.47;4.43;;;10.00;99.90;;;;;;4966836;28;20219;-46
2022/04/07 01:13:53;;;;;;;4.73;3.73;;;10.00;99.90;;;;;;4990210;28;20436;-47
2022/04/07 01:16:26;;;;;;;5.93;4.03;;;10.00;99.90;;;;;;4994666;28;20508;-46
2022/04/07 01:18:53;;;;;;;5.10;3.83;;;10.00;99.90;;;;;;4982353;28;20587;-46
2022/04/07 01:21:21;;;;;;;4.33;3.50;;;9.90;99.90;;;;;;4996348;28;20211;-47
2022/04/07 01:23:55;;;;;;;5.13;3.57;;;9.90;99.90;;;;;;4979566;28;20226;-46
2022/04/07 01:26:25;;;;;;;6.43;3.80;;;9.90;99.90;;;;;;4974557;28;20215;-47
2022/04/07 01:28:52;;;;;;;5.37;3.43;;;10.00;99.90;;;;;;4990839;28;20209;-45
2022/04/07 01:31:18;;;;;;;5.17;3.50;;;10.00;99.90;;;;;;4979386;28;20221;-46
2022/04/07 01:33:46;;;;;;;4.63;3.47;;;10.00;99.90;;;;;;4987633;28;20234;-45
2022/04/07 01:36:16;;;;;;;3.60;3.30;;;10.10;99.90;;;;;;4987094;28;20211;-47
2022/04/07 01:38:43;;;;;;;3.90;3.50;;;10.00;99.90;;;;;;4988152;28;20583;-45
2022/04/07 01:41:10;;;;;;;4.17;3.50;;;10.00;99.90;;;;;;4989584;28;20328;-47
2022/04/07 01:43:40;;;;;;;5.77;3.60;;;10.00;99.90;;;;;;4977314;28;20223;-45
2022/04/07 01:46:08;;;;;;;4.07;3.70;;;10.10;99.90;;;;;;5015899;28;20279;-47
2022/04/07 01:48:35;;;;;;;4.93;3.80;;;10.00;99.90;;;;;;4985999;28;20660;-46
2022/04/07 01:51:03;;;;;;;4.07;3.33;;;10.00;99.90;;;;;;4982344;28;20222;-46
2022/04/07 01:53:30;;;;;;;5.80;4.37;;;10.00;99.90;;;;;;4978163;28;20203;-47
2022/04/07 01:55:58;;;;;;;4.80;4.00;;;10.00;99.90;;;;;;4988862;28;20203;-47
2022/04/07 01:58:25;;;;;;;6.83;4.77;;;10.00;99.90;;;;;;4982371;28;20223;-47
2022/04/07 02:00:54;;;;;;;6.93;4.77;;;10.00;99.90;;;;;;4979544;28;20203;-46
2022/04/07 02:03:21;;;;;;;6.10;4.77;;;10.00;99.90;;;;;;4993191;28;20206;-46
2022/04/07 02:05:48;;;;;;;5.77;4.17;;;10.00;99.90;;;;;;4985469;28;20213;-46
2022/04/07 02:08:15;;;;;;;4.80;3.90;;;10.10;99.90;;;;;;4973637;28;20209;-47
2022/04/07 02:10:42;;;;;;;5.90;3.70;;;9.90;99.90;;;;;;4995413;28;20211;-48
2022/04/07 02:13:09;;;;;;;4.30;3.90;;;9.90;99.90;;;;;;4969940;28;20752;-46
2022/04/07 02:15:36;;;;;;;6.97;3.90;;;10.00;99.90;;;;;;4990411;28;20321;-47
2022/04/07 02:18:04;;;;;;;4.17;3.77;;;9.90;99.90;;;;;;4974371;28;20276;-46
2022/04/07 02:20:31;;;;;;;4.77;4.20;;;9.90;99.90;;;;;;4985132;28;20221;-49
2022/04/07 02:22:59;;;;;;;5.53;3.57;;;9.90;99.90;;;;;;4989940;28;20791;-47
2022/04/07 02:25:28;;;;;;;4.47;3.23;;;9.90;99.90;;;;;;4981180;28;20516;-47
2022/04/07 02:27:55;;;;;;;7.37;3.77;;;9.90;99.90;;;;;;4971461;28;20600;-46
2022/04/07 02:30:22;;;;;;;4.40;3.50;;;9.90;99.90;;;;;;4996313;28;20207;-47
2022/04/07 02:32:49;;;;;;;7.50;3.80;;;9.90;99.90;;;;;;4986422;28;20277;-47
2022/04/07 02:38:39;;;;;;;4.83;3.50;;;10.00;99.90;;;;;;4987345;28;20610;-49
2022/04/07 02:41:06;;;;;;;5.23;3.40;;;10.00;99.90;;;;;;4982432;28;20203;-49
2022/04/07 02:43:32;;;;;;;6.07;4.07;;;9.90;99.90;;;;;;4966334;28;20331;-48
2022/04/07 02:45:59;;;;;;;8.57;4.10;;;10.00;99.90;;;;;;4993856;28;20206;-49
2022/04/07 02:48:26;;;;;;;6.40;3.83;;;10.00;99.90;;;;;;4987220;28;20271;-47
2022/04/07 02:50:53;;;;;;;6.37;4.43;;;10.00;99.90;;;;;;4985990;28;20206;-50
2022/04/07 02:53:20;;;;;;;9.47;4.40;;;10.00;99.90;;;;;;4964887;28;20990;-47
2022/04/07 02:55:48;;;;;;;4.40;3.70;;;10.00;99.90;;;;;;4993880;28;20370;-45
2022/04/07 02:58:15;;;;;;;3.40;3.10;;;10.00;99.90;;;;;;4944750;28;20234;-48
2022/04/07 03:00:41;;;;;;;5.47;3.30;;;9.90;99.90;;;;;;4994123;28;20349;-45
2022/04/07 03:03:08;;;;;;;3.80;3.40;;;9.90;99.90;;;;;;4997339;28;20646;-46
2022/04/07 03:05:35;;;;;;;4.23;3.00;;;9.90;99.90;;;;;;4985981;28;20234;-46
2022/04/07 03:08:02;;;;;;;3.83;3.30;;;9.90;99.90;;;;;;4981834;28;20215;-48
2022/04/07 03:10:29;;;;;;;3.83;3.40;;;9.90;99.90;;;;;;4982204;28;20290;-46
2022/04/07 03:12:58;;;;;;;5.50;3.40;;;9.90;99.90;;;;;;4975754;28;20307;-47
2022/04/07 03:15:24;;;;;;;6.73;4.50;;;9.90;99.90;;;;;;4982297;28;20227;-47
2022/04/07 03:17:51;;;;;;;5.77;4.37;;;9.90;99.90;;;;;;4987412;28;20310;-47
2022/04/07 03:20:18;;;;;;;5.30;4.63;;;9.90;99.90;;;;;;4978697;28;20207;-46
2022/04/07 03:22:45;;;;;;;5.63;4.23;;;9.80;99.90;;;;;;4981968;28;20314;-46
2022/04/07 03:25:12;;;;;;;4.70;3.97;;;9.80;99.90;;;;;;4984353;28;20332;-46
2022/04/07 03:27:39;;;;;;;5.27;4.33;;;9.80;99.90;;;;;;4968877;28;20215;-47
2022/04/07 03:30:09;;;;;;;7.57;4.07;;;9.80;99.90;;;;;;4969474;28;20215;-47
2022/04/07 03:32:35;;;;;;;4.97;4.47;;;9.80;99.90;;;;;;4978100;28;20234;-46
2022/04/07 03:35:02;;;;;;;4.43;4.03;;;9.80;99.90;;;;;;4984663;28;20222;-47
2022/04/07 03:37:29;;;;;;;5.10;2.93;;;9.80;99.90;;;;;;4982212;28;20227;-47
2022/04/07 03:39:56;;;;;;;5.67;2.63;;;9.80;99.90;;;;;;4990306;28;20282;-47
2022/04/07 03:42:23;;;;;;;4.47;2.50;;;9.80;99.90;;;;;;4983340;28;20712;-46
2022/04/07 03:44:50;;;;;;;2.97;2.27;;;9.80;99.90;;;;;;4984464;28;20310;-47
2022/04/07 03:47:18;;;;;;;6.60;2.40;;;9.90;99.90;;;;;;4970389;28;20211;-47
2022/04/07 03:49:45;;;;;;;3.17;2.53;;;9.80;99.90;;;;;;4990090;28;20214;-46
2022/04/07 03:52:12;;;;;;;4.03;2.60;;;9.80;99.90;;;;;;4962925;28;21166;-46
2022/04/07 03:54:38;;;;;;;4.20;2.90;;;9.80;99.90;;;;;;4991291;28;20297;-46
2022/04/07 03:57:05;;;;;;;7.07;3.53;;;9.80;99.90;;;;;;4967379;28;20289;-50
2022/04/07 03:59:37;;;;;;;5.23;2.93;;;9.80;99.90;;;;;;4974611;28;20321;-46
2022/04/07 04:02:06;;;;;;;5.60;4.00;;;9.80;99.90;;;;;;4969068;28;20222;-49
2022/04/07 04:04:34;;;;;;;6.57;3.70;;;9.80;99.90;;;;;;4998673;28;20226;-45
2022/04/07 04:07:01;;;;;;;5.67;3.93;;;9.70;99.90;;;;;;4975140;28;20277;-50
2022/04/07 04:09:28;;;;;;;6.93;3.83;;;9.70;99.90;;;;;;4988370;28;20279;-48
2022/04/07 04:11:55;;;;;;;4.13;3.10;;;9.80;99.90;;;;;;4982451;28;20278;-49
2022/04/07 04:14:22;;;;;;;5.70;2.60;;;9.70;99.90;;;;;;4991907;28;20250;-45
2022/04/07 04:16:49;;;;;;;4.30;2.60;;;9.80;99.90;;;;;;4985106;28;20211;-50
2022/04/07 04:19:16;;;;;;;3.77;2.57;;;9.70;99.90;;;;;;4990004;28;20993;-47
2022/04/07 04:21:44;;;;;;;4.80;2.57;;;9.70;99.90;;;;;;4996427;28;20206;-46
2022/04/07 04:24:11;;;;;;;7.47;2.70;;;9.70;99.90;;;;;;4962022;28;20223;-46
2022/04/07 04:26:38;;;;;;;3.57;2.30;;;9.70;99.90;;;;;;4997220;28;22050;-45
2022/04/07 04:29:05;;;;;;;4.67;2.37;;;9.70;99.90;;;;;;4984449;28;20382;-50
2022/04/07 04:31:32;;;;;;;4.33;2.47;;;9.70;99.90;;;;;;4973078;28;20221;-46
2022/04/07 04:33:59;;;;;;;3.53;2.37;;;9.80;99.90;;;;;;5003992;28;20569;-49
2022/04/07 04:36:26;;;;;;;3.10;1.80;;;9.80;99.90;;;;;;4991025;28;20228;-49
2022/04/07 04:38:54;;;;;;;4.40;1.70;;;9.70;99.90;;;;;;5004787;28;20298;-50
2022/04/07 04:41:21;;;;;;;2.33;1.93;;;9.70;99.90;;;;;;4985231;28;20240;-47
2022/04/07 04:43:48;;;;;;;4.37;1.90;;;9.70;99.90;;;;;;4988809;28;20231;-47
2022/04/07 04:46:15;;;;;;;2.40;1.63;;;9.70;99.90;;;;;;4995011;28;20215;-45
2022/04/07 04:48:41;;;;;;;9.07;2.43;;;9.70;99.90;;;;;;4976382;28;20310;-48
2022/04/07 04:51:08;;;;;;;2.53;1.80;;;9.70;99.90;;;;;;4989648;28;23384;-50
2022/04/07 04:53:35;;;;;;;3.83;1.90;;;9.70;99.90;;;;;;4982439;28;20306;-49
2022/04/07 04:56:03;;;;;;;3.57;1.70;;;9.70;99.90;;;;;;4982502;28;20203;-49
2022/04/07 04:58:30;;;;;;;3.83;1.77;;;9.70;99.90;;;;;;4984790;28;20515;-48
2022/04/07 05:00:57;;;;;;;4.17;1.70;;;9.70;99.90;;;;;;4979472;28;20211;-50
2022/04/07 05:03:24;;;;;;;3.77;2.07;;;9.70;99.90;;;;;;4971503;28;20203;-46
2022/04/07 05:05:51;;;;;;;3.23;1.93;;;9.70;99.90;;;;;;4993092;28;20206;-47
2022/04/07 05:08:19;;;;;;;5.30;2.10;;;9.70;99.90;;;;;;4982198;28;20231;-46
2022/04/07 05:10:46;;;;;;;3.40;1.80;;;9.60;99.90;;;;;;4975962;28;20325;-47
2022/04/07 05:13:14;;;;;;;4.83;2.27;;;9.70;99.90;;;;;;4997738;28;20203;-47
2022/04/07 05:15:41;;;;;;;4.03;1.80;;;9.70;99.90;;;;;;4973397;28;20206;-46
2022/04/07 05:18:08;;;;;;;3.40;2.07;;;9.60;99.90;;;;;;4983304;28;20237;-50
2022/04/07 05:20:35;;;;;;;3.60;1.80;;;9.70;99.90;;;;;;5000630;28;20195;-46
2022/04/07 05:23:02;;;;;;;2.27;2.00;;;9.60;99.90;;;;;;4989467;28;20282;-48
2022/04/07 05:25:29;;;;;;;2.33;1.83;;;9.60;99.90;;;;;;4986768;28;20294;-47
2022/04/07 05:27:56;;;;;;;2.97;1.90;;;9.70;99.90;;;;;;4980153;28;20721;-46
2022/04/07 05:30:24;;;;;;;5.47;2.67;;;9.70;99.90;;;;;;4986969;28;20289;-47
2022/04/07 05:32:51;;;;;;;6.00;2.90;;;9.70;99.90;;;;;;4973232;28;20549;-47
2022/04/07 05:35:18;;;;;;;5.67;2.90;;;9.60;99.90;;;;;;4986264;28;20230;-47
2022/04/07 05:37:46;;;;;;;5.47;2.67;;;9.60;99.90;;;;;;4994159;28;20202;-47
2022/04/07 05:40:14;;;;;;;4.83;2.40;;;9.60;99.90;;;;;;4987549;28;20217;-47
2022/04/07 05:42:41;;;;;;;7.00;3.20;;;9.60;99.90;;;;;;4982699;28;20213;-46
2022/04/07 05:45:09;;;;;;;4.63;2.47;;;9.60;99.90;;;;;;4989034;28;20426;-47
2022/04/07 05:47:40;;;;;;;6.40;3.40;;;9.60;99.90;;;;;;4982349;28;20207;-47
2022/04/07 05:50:09;;;;;;;5.63;3.17;;;9.70;99.90;;;;;;4976102;28;20210;-46
2022/04/07 05:52:36;;;;;;;14.77;4.00;;;9.60;99.90;;;;;;5002206;28;20386;-47
2022/04/07 05:55:04;;;;;;;9.77;3.50;;;9.70;99.90;;;;;;4981878;28;20223;-46
2022/04/07 05:57:31;;;;;;;11.50;3.33;;;9.70;99.90;;;;;;4985252;28;20215;-47
2022/04/07 06:00:04;;;;;;;15.23;4.47;;;9.70;99.90;;;;;;4968654;28;20238;-47
2022/04/07 06:02:31;;;;;;;7.13;3.43;;;9.70;99.90;;;;;;4992178;28;20216;-47
2022/04/07 06:04:59;;;;;;;10.30;4.10;;;9.80;99.90;;;;;;4982024;28;20771;-47
2022/04/07 06:07:26;;;;;;;8.30;3.57;;;9.80;99.90;;;;;;4968891;28;20215;-46
2022/04/07 06:09:52;;;;;;;8.73;3.47;;;9.70;99.90;;;;;;4983136;28;20526;-47
2022/04/07 06:12:19;;;;;;;7.63;3.30;;;9.80;99.90;;;;;;4993972;28;20207;-46
2022/04/07 06:14:46;;;;;;;10.70;2.70;;;9.70;99.90;;;;;;4976169;28;20596;-47
2022/04/07 06:17:13;;;;;;;9.63;3.20;;;9.70;99.90;;;;;;4976317;28;20210;-47
2022/04/07 06:19:40;;;;;;;9.33;2.53;;;9.70;99.90;;;;;;4971878;28;20235;-47
2022/04/07 06:22:08;;;;;;;10.50;2.70;;;9.70;99.90;;;;;;4993022;28;20581;-47
2022/04/07 06:24:35;;;;;;;8.10;2.40;;;9.80;99.90;;;;;;4976788;28;20230;-47
2022/04/07 06:27:02;;;;;;;6.23;2.53;;;9.80;99.90;;;;;;4984370;28;20274;-46
2022/04/07 06:29:28;;;;;;;6.93;2.40;;;9.80;99.90;;;;;;4988291;28;20460;-46
2022/04/07 06:31:55;;;;;;;12.13;3.10;;;9.80;99.90;;;;;;4970940;28;20209;-46
2022/04/07 06:34:22;;;;;;;7.40;2.37;;;9.80;99.90;;;;;;4969855;28;20269;-46
2022/04/07 06:36:49;;;;;;;8.00;2.37;;;9.80;99.90;;;;;;4992759;28;20501;-46
2022/04/07 06:39:17;;;;;;;6.27;2.93;;;9.80;99.90;;;;;;4973070;28;20228;-46
2022/04/07 06:41:44;;;;;;;6.57;2.60;;;9.80;99.90;;;;;;4977409;28;20421;-47
2022/04/07 06:44:11;;;;;;;10.27;2.50;;;9.80;99.90;;;;;;4989130;28;20235;-47
2022/04/07 06:46:37;;;;;;;8.43;2.57;;;9.80;99.90;;;;;;4964138;28;20202;-50
2022/04/07 06:49:04;;;;;;;7.97;2.10;;;9.80;99.90;;;;;;4963957;28;20400;-45
2022/04/07 06:51:31;;;;;;;6.30;2.27;;;9.70;99.90;;;;;;5001562;28;20542;-49
2022/04/07 06:53:58;;;;;;;6.50;2.80;;;9.70;99.90;;;;;;4979320;28;20306;-46
2022/04/07 06:56:26;;;;;;;8.67;2.60;;;9.70;99.90;;;;;;4989336;28;20282;-50
2022/04/07 06:58:54;;;;;;;6.73;2.40;;;9.70;99.90;;;;;;4987314;28;20222;-47
2022/04/07 07:01:21;;;;;;;5.97;2.17;;;9.70;99.90;;;;;;4975656;28;20230;-45
2022/04/07 07:03:48;;;;;;;10.70;2.60;;;9.70;99.90;;;;;;4980900;28;20299;-46
2022/04/07 07:06:15;;;;;;;9.73;2.67;;;9.70;99.90;;;;;;4972111;28;20299;-46
2022/04/07 07:08:42;;;;;;;4.23;2.40;;;9.70;99.90;;;;;;4978349;28;20286;-47
2022/04/07 07:11:09;;;;;;;7.83;2.03;;;9.70;99.90;;;;;;4991358;28;20206;-46
2022/04/07 07:13:37;;;;;;;7.07;2.10;;;9.70;99.90;;;;;;4975684;28;20226;-46
2022/04/07 07:16:05;;;;;;;4.73;1.93;;;9.70;99.90;;;;;;4992622;28;20277;-45
2022/04/07 07:18:32;;;;;;;7.03;2.77;;;9.70;99.90;;;;;;4969298;28;20241;-49
2022/04/07 07:20:59;;;;;;;3.57;2.00;;;9.70;99.90;;;;;;4978557;28;20218;-45
2022/04/07 07:23:25;;;;;;;6.67;2.40;;;9.70;99.90;;;;;;4989028;28;20207;-49
2022/04/07 07:25:52;;;;;;;6.60;2.13;;;9.80;99.90;;;;;;4990815;28;20467;-47
2022/04/07 07:28:20;;;;;;;5.83;2.10;;;9.80;99.90;;;;;;4987535;28;20238;-47
2022/04/07 07:30:48;;;;;;;3.60;2.07;;;9.80;99.90;;;;;;4986604;28;20414;-46
2022/04/07 07:33:17;;;;;;;8.00;2.33;;;9.80;99.90;;;;;;4985243;28;20214;-47
2022/04/07 07:35:46;;;;;;;5.50;1.00;;;9.70;99.90;;;;;;4950808;28;20744;-47
2022/04/07 07:38:13;;;;;;;0.80;0.70;;;8.80;99.90;;;;;;4980550;28;20619;-46
2022/04/07 07:40:40;;;;;;;1.13;0.60;;;8.10;99.90;;;;;;4974720;28;20257;-46
2022/04/07 07:43:06;;;;;;;1.97;1.00;;;7.70;99.90;;;;;;5002645;28;20207;-46
2022/04/07 07:45:35;;;;;;;2.23;0.80;;;7.60;99.90;;;;;;4985020;28;20238;-47
2022/04/07 07:48:04;;;;;;;0.63;0.63;;;7.50;99.90;;;;;;4984560;28;20218;-46
2022/04/07 07:50:30;;;;;;;1.27;0.63;;;7.50;99.90;;;;;;4982154;28;20209;-47
2022/04/07 07:52:58;;;;;;;3.50;0.70;;;7.60;99.90;;;;;;4971117;28;20328;-45
2022/04/07 07:55:25;;;;;;;4.73;0.70;;;7.60;99.90;;;;;;4967086;28;20233;-50
2022/04/07 07:57:52;;;;;;;2.30;0.70;;;7.70;99.90;;;;;;4987428;28;20214;-46
2022/04/07 08:00:19;;;;;;;3.03;0.70;;;7.60;99.90;;;;;;4988107;28;20611;-47
2022/04/07 08:02:46;;;;;;;0.60;0.60;;;7.60;99.90;;;;;;4968719;28;20685;-46
2022/04/07 08:05:14;;;;;;;1.10;0.60;;;7.60;99.90;;;;;;4985424;28;20250;-46
2022/04/07 08:07:42;;;;;;;0.53;0.53;;;7.50;99.90;;;;;;4966900;28;20261;-46
2022/04/07 08:10:10;;;;;;;0.50;0.50;;;7.40;99.90;;;;;;4992651;28;20199;-46
2022/04/07 08:12:38;;;;;;;1.03;0.80;;;7.40;99.90;;;;;;4986759;28;20204;-47
2022/04/07 08:15:05;;;;;;;0.83;0.60;;;7.40;99.90;;;;;;4981156;28;20231;-45
2022/04/07 08:17:32;;;;;;;0.97;0.67;;;7.30;99.90;;;;;;4987390;28;20513;-47
2022/04/07 08:19:59;;;;;;;0.90;0.77;;;7.40;99.90;;;;;;4988342;28;20229;-46
2022/04/07 08:22:28;;;;;;;1.03;0.40;;;7.40;99.90;;;;;;4959075;28;20213;-47
2022/04/07 08:24:55;;;;;;;2.10;0.60;;;7.40;99.90;;;;;;4994731;28;20241;-46
2022/04/07 08:27:23;;;;;;;0.63;0.63;;;7.30;99.90;;;;;;4992215;28;20208;-47
2022/04/07 08:29:50;;;;;;;0.93;0.60;;;7.30;99.90;;;;;;4992507;28;20231;-47
2022/04/07 08:32:17;;;;;;;3.57;0.70;;;7.30;99.90;;;;;;4984514;28;20238;-46
2022/04/07 08:34:45;;;;;;;1.23;0.70;;;7.30;99.90;;;;;;4987955;28;20272;-46
2022/04/07 08:37:12;;;;;;;0.50;0.47;;;7.20;99.90;;;;;;4984062;28;20244;-45
2022/04/07 08:39:41;;;;;;;0.60;0.50;;;7.20;99.90;;;;;;4965329;28;20232;-46
2022/04/07 08:42:08;;;;;;;2.43;0.60;;;7.20;99.90;;;;;;4985798;28;20555;-47
2022/04/07 08:44:35;;;;;;;0.47;0.47;;;7.10;99.90;;;;;;4990295;28;20339;-47
2022/04/07 08:47:02;;;;;;;0.77;0.53;;;7.10;99.90;;;;;;4977205;28;20285;-48
2022/04/07 08:49:31;;;;;;;2.40;0.70;;;7.10;99.90;;;;;;4975990;28;20516;-45
2022/04/07 08:51:58;;;;;;;0.83;0.77;;;7.10;99.90;;;;;;4972218;28;23400;-45
2022/04/07 08:54:25;;;;;;;0.87;0.70;;;7.10;99.90;;;;;;4982113;28;20237;-45
2022/04/07 08:56:54;;;;;;;1.33;0.77;;;7.10;99.90;;;;;;4990477;28;20507;-49
2022/04/07 08:59:21;;;;;;;1.13;0.70;;;7.20;99.90;;;;;;4973116;28;22620;-46
2022/04/07 09:01:48;;;;;;;1.73;0.80;;;7.20;99.90;;;;;;4983913;28;20212;-49
2022/04/07 09:04:15;;;;;;;1.13;0.70;;;7.20;99.90;;;;;;4994235;28;20440;-45
2022/04/07 09:06:43;;;;;;;1.77;0.67;;;7.20;99.90;;;;;;4977695;28;21897;-50
2022/04/07 09:09:12;;;;;;;0.83;0.70;;;7.10;99.90;;;;;;4965482;28;20943;-45
2022/04/07 09:11:39;;;;;;;2.40;0.67;;;7.10;99.90;;;;;;4976088;28;20205;-49
2022/04/07 09:14:09;;;;;;;1.13;1.00;;;7.10;99.90;;;;;;4997477;28;20316;-47
2022/04/07 09:16:38;;;;;;;0.80;0.50;;;7.10;99.90;;;;;;4973499;28;20939;-47
2022/04/07 09:19:05;;;;;;;3.57;0.77;;;7.10;99.90;;;;;;4991983;28;20206;-48
2022/04/07 09:21:34;;;;;;;0.73;0.73;;;7.10;99.90;;;;;;4983050;28;20212;-49
2022/04/07 09:24:05;;;;;;;0.70;0.60;;;7.10;99.90;;;;;;4980509;28;20404;-46
2022/04/07 09:26:32;;;;;;;0.87;0.80;;;7.10;99.90;;;;;;4972513;28;20551;-46
2022/04/07 09:28:59;;;;;;;0.60;0.60;;;7.00;99.90;;;;;;4975616;28;20462;-46
2022/04/07 09:31:28;;;;;;;3.03;1.63;;;7.00;99.90;;;;;;4987509;28;20212;-45
2022/04/07 09:33:56;;;;;;;3.07;1.40;;;7.00;99.90;;;;;;4962971;28;20563;-46
2022/04/07 09:36:24;;;;;;;1.60;1.30;;;7.00;99.90;;;;;;4983876;28;20619;-45
2022/04/07 09:38:52;;;;;;;0.80;0.80;;;7.10;99.90;;;;;;4989618;28;20237;-46
2022/04/07 09:41:21;;;;;;;1.43;1.00;;;6.90;99.90;;;;;;4971077;28;20215;-46
2022/04/07 09:43:49;;;;;;;0.70;0.70;;;6.90;99.90;;;;;;4988623;28;20417;-47
2022/04/07 09:46:16;;;;;;;1.40;0.70;;;7.00;99.90;;;;;;4989215;28;20217;-46
2022/04/07 09:49:03;;;;;;;0.43;0.43;;;6.90;99.90;;;;;;4968215;28;20202;-47
2022/04/07 09:51:37;;;;;;;4.93;0.90;;;6.90;99.90;;;;;;4990614;28;20257;-47
2022/04/07 09:54:09;;;;;;;3.77;0.90;;;6.90;99.90;;;;;;4982975;28;20233;-46
2022/04/07 09:56:37;;;;;;;2.93;0.90;;;6.90;99.90;;;;;;4977007;28;20517;-47
2022/04/07 09:59:05;;;;;;;1.47;0.70;;;6.90;99.90;;;;;;4989400;28;20589;-47
2022/04/07 10:01:33;;;;;;;2.33;0.87;;;6.90;99.90;;;;;;4976681;28;20552;-47
2022/04/07 10:04:03;;;;;;;1.27;0.90;;;6.90;99.90;;;;;;4966725;28;20553;-46
2022/04/07 10:06:32;;;;;;;1.17;0.87;;;6.90;99.90;;;;;;4975381;28;20560;-46
2022/04/07 10:09:01;;;;;;;1.50;0.70;;;7.00;99.90;;;;;;4974702;28;20726;-46
2022/04/07 10:11:30;;;;;;;1.27;0.80;;;7.10;99.90;;;;;;4997494;28;20504;-45
2022/04/07 10:13:58;;;;;;;1.17;0.83;;;7.00;99.90;;;;;;4987597;28;20366;-47
2022/04/07 10:16:26;;;;;;;1.67;1.07;;;7.20;99.90;;;;;;4998027;28;20211;-46
2022/04/07 10:18:58;;;;;;;2.00;0.80;;;7.20;99.90;;;;;;4968566;28;20693;-46
2022/04/07 10:21:40;;;;;;;0.87;0.73;;;7.10;99.90;;;;;;4992104;28;20789;-46
2022/04/07 10:24:28;;;;;;;0.87;0.40;;;7.30;99.90;;;;;;4971535;28;20227;-46
2022/04/07 10:26:58;;;;;;;1.97;0.67;;;7.50;99.90;;;;;;4982293;28;20235;-46
2022/04/07 10:29:25;;;;;;;0.70;0.67;;;7.60;99.90;;;;;;4976372;28;20706;-49
2022/04/07 10:32:19;;;;;;;2.30;1.00;;;7.70;99.90;;;;;;4981764;28;20292;-46
2022/04/07 10:35:01;;;;;;;1.50;0.93;;;7.70;99.90;;;;;;4957595;28;22962;-48
2022/04/07 10:37:42;;;;;;;2.10;1.00;;;7.80;99.90;;;;;;4972305;28;20282;-50
2022/04/07 10:40:35;;;;;;;0.77;0.77;;;7.90;99.90;;;;;;4987073;28;20247;-46
2022/04/07 10:43:25;;;;;;;3.10;0.80;;;8.00;99.90;;;;;;4974208;28;21169;-50
2022/04/07 10:45:53;;;;;;;3.30;0.90;;;8.10;99.90;;;;;;4992428;28;20206;-47
2022/04/07 10:48:25;;;;;;;1.23;0.80;;;8.20;99.90;;;;;;4986574;28;20232;-46
2022/04/07 10:50:54;;;;;;;2.83;1.00;;;8.20;99.90;;;;;;4980190;28;20237;-49
2022/04/07 10:53:25;;;;;;;4.10;0.90;;;8.30;99.90;;;;;;4994615;28;20295;-47
2022/04/07 10:56:06;;;;;;;2.43;0.80;;;8.50;99.90;;;;;;4962849;28;20936;-46
2022/04/07 10:58:45;;;;;;;4.07;1.43;;;8.50;99.90;;;;;;4977915;28;20227;-50
2022/04/07 11:01:51;;;;;;;3.33;1.13;;;8.50;99.90;;;;;;4993981;28;20218;-46
2022/04/07 11:04:37;;;;;;;2.57;1.00;;;8.50;99.90;;;;;;4984051;28;20245;-45
2022/04/07 11:07:22;;;;;;;6.57;1.40;;;8.70;99.90;;;;;;4998261;28;20295;-46
2022/04/07 11:10:12;;;;;;;4.70;1.23;;;8.80;99.90;;;;;;4985568;28;20206;-46
2022/04/07 11:12:44;;;;;;;3.20;1.27;;;8.80;99.90;;;;;;4958355;28;20206;-47
2022/04/07 11:15:34;;;;;;;3.23;1.30;;;8.90;99.90;;;;;;4974669;28;20231;-47
2022/04/07 11:18:18;;;;;;;1.30;1.00;;;9.00;99.90;;;;;;4978329;28;20217;-46
2022/04/07 11:21:00;;;;;;;4.37;1.13;;;9.00;99.90;;;;;;4977318;28;20231;-47
2022/04/07 11:23:40;;;;;;;1.87;1.20;;;9.10;99.90;;;;;;4971036;28;20217;-47
2022/04/07 11:26:18;;;;;;;1.13;0.90;;;9.30;99.90;;;;;;4977541;28;20219;-47
2022/04/07 11:28:59;;;;;;;3.43;1.30;;;9.40;99.90;;;;;;4960220;28;20337;-47
2022/04/07 11:31:46;;;;;;;4.07;1.37;;;9.50;99.90;;;;;;4976446;28;20207;-48
2022/04/07 11:34:42;;;;;;;4.37;1.57;;;9.60;99.90;;;;;;4985936;28;21060;-46
2022/04/07 11:37:09;;;;;;;4.83;1.60;;;9.70;99.90;;;;;;4977274;28;20276;-46
2022/04/07 11:39:39;;;;;;;2.90;1.27;;;9.80;99.90;;;;;;4967092;28;20211;-47
2022/04/07 11:42:08;;;;;;;4.97;1.30;;;9.80;99.90;;;;;;4973409;28;20211;-47
2022/04/07 11:44:35;;;;;;;3.27;1.73;;;9.80;99.90;;;;;;4956222;28;20223;-47
2022/04/07 11:47:03;;;;;;;6.33;1.40;;;9.80;99.90;;;;;;4984697;28;20317;-47
2022/04/07 11:49:31;;;;;;;2.70;1.30;;;9.80;99.90;;;;;;4999302;28;20285;-47
2022/04/07 11:51:57;;;;;;;7.97;1.90;;;9.80;99.90;;;;;;5004042;28;20282;-47
2022/04/07 11:54:24;;;;;;;3.17;1.00;;;9.80;99.90;;;;;;4989885;28;20234;-47
2022/04/07 11:56:52;;;;;;;4.37;1.60;;;9.80;99.90;;;;;;5001760;28;20252;-48
2022/04/07 11:59:21;;;;;;;3.53;1.40;;;9.80;99.90;;;;;;4985175;28;20202;-46
2022/04/07 12:01:50;;;;;;;4.57;1.20;;;9.70;99.90;;;;;;4989745;28;20249;-46
2022/04/07 12:04:17;;;;;;;2.40;1.43;;;9.40;99.90;;;;;;4993599;28;20288;-46
2022/04/07 12:06:46;;;;;;;4.43;1.47;;;9.20;99.90;;;;;;4992937;28;20214;-47
2022/04/07 12:09:14;;;;;;;7.20;1.60;;;9.10;99.90;;;;;;5004419;28;20207;-46
2022/04/07 12:11:41;;;;;;;4.27;1.27;;;9.00;99.90;;;;;;5001298;28;20214;-46
2022/04/07 12:14:11;;;;;;;2.40;1.17;;;9.00;99.90;;;;;;5005673;28;20251;-46
2022/04/07 12:16:46;;;;;;;4.97;1.00;;;8.80;99.90;;;;;;4982592;28;20277;-46
2022/04/07 12:19:13;;;;;;;2.20;0.90;;;8.60;99.90;;;;;;4996092;28;20249;-46
2022/04/07 12:21:56;;;;;;;3.17;1.10;;;8.70;99.90;;;;;;5005550;28;20223;-47
2022/04/07 12:24:25;;;;;;;2.00;1.30;;;9.00;99.90;;;;;;4977590;28;20230;-47
2022/04/07 12:26:54;;;;;;;1.37;0.80;;;9.20;99.90;;;;;;5006090;28;20212;-47
2022/04/07 12:29:22;;;;;;;8.03;1.73;;;9.30;99.90;;;;;;5001323;28;20204;-46
2022/04/07 12:32:00;;;;;;;6.53;1.60;;;9.50;99.90;;;;;;4980391;28;20206;-47
2022/04/07 12:34:27;;;;;;;1.87;1.23;;;9.50;99.90;;;;;;5015820;28;20846;-47
2022/04/07 12:36:55;;;;;;;4.17;1.43;;;9.50;99.90;;;;;;4989355;28;20291;-46
2022/04/07 12:39:22;;;;;;;7.00;1.33;;;9.40;99.90;;;;;;4998331;28;20644;-47
2022/04/07 12:41:51;;;;;;;6.20;2.10;;;9.20;99.90;;;;;;4991985;28;20250;-47
2022/04/07 12:44:21;;;;;;;5.63;1.40;;;8.90;99.90;;;;;;4987785;28;20562;-46
2022/04/07 12:46:50;;;;;;;5.43;1.60;;;8.90;99.90;;;;;;5007339;28;20210;-46
2022/04/07 12:49:26;;;;;;;2.57;1.20;;;8.90;99.90;;;;;;4979087;28;20221;-46
2022/04/07 12:52:04;;;;;;;4.97;1.30;;;8.90;99.90;;;;;;5002135;28;20209;-46
2022/04/07 12:54:31;;;;;;;4.10;1.50;;;8.90;99.90;;;;;;4987882;28;20227;-46
2022/04/07 12:57:13;;;;;;;6.23;1.60;;;9.00;99.90;;;;;;5001063;28;20211;-46
2022/04/07 12:59:41;;;;;;;6.67;2.00;;;9.10;99.90;;;;;;5001392;28;20743;-47
2022/04/07 13:02:09;;;;;;;5.43;1.90;;;9.10;99.90;;;;;;4983417;28;20327;-46
2022/04/07 13:04:50;;;;;;;5.57;1.77;;;9.20;99.90;;;;;;4999011;28;20261;-47
2022/04/07 13:07:18;;;;;;;5.93;1.77;;;9.30;99.90;;;;;;4989992;28;20221;-46